< < Back
Terminal Aerodrome Forecast


Current Version              Previous Versions:   1  2  3  4  5  6  7  8  9  

Terminal Aerodrome Forecast

624
FTUS42 KILM 031916 AAA
TAFILM
TAF AMD
KILM 031916Z 0319/0418 18011KT P6SM -SHRA VCTS SCT020 BKN050CB
      TEMPO 0319/0323 VRB15G25KT 4SM -TSRA
     FM040400 23007KT P6SM SCT070 BKN100
     FM041300 26012G18KT P6SM BKN080=

Latest METAR

702
SAUS70 KWBC 040800 RRL
MTRILM
METAR KILM 040753Z 22008KT 10SM CLR 25/22 A2995 RMK AO2 SLP141
T02500222


USA.gov is the U.S. government's official web portal to all federal, state and local government web resources and services.